Time;durP1;ratioP1;P1;durP2;ratioP2;P2;SDS_P1;SDS_P2;PMS_P1;PMS_P2;Temp;Humidity;BMP_temperature;BMP_pressure;BME280_temperature;BME280_humidity;BME280_pressure;Samples;Min_cycle;Max_cycle;Signal;HPM_P1;HPM_P2
2023/06/28 00:03:47;;;;;;;4.00;2.75;;;;;;;16.94;94.73;101828.44;10254518;29;20487;-71
2023/06/28 00:08:48;;;;;;;8.23;3.60;;;;;;;17.02;93.89;101817.25;10256290;28;20115;-71
2023/06/28 00:13:48;;;;;;;8.82;4.10;;;;;;;17.09;93.60;101822.69;10255176;28;20042;-70
2023/06/28 00:18:48;;;;;;;6.00;3.97;;;;;;;17.19;92.94;101814.84;10254362;29;20042;-70
2023/06/28 00:23:49;;;;;;;7.90;4.72;;;;;;;17.28;91.57;101829.13;10252480;29;20027;-70
2023/06/28 00:28:49;;;;;;;13.02;4.70;;;;;;;17.32;90.90;101824.88;10236555;29;20043;-71
2023/06/28 00:33:50;;;;;;;14.48;3.75;;;;;;;17.32;92.57;101817.50;10236777;29;20163;-71
2023/06/28 00:38:50;;;;;;;6.07;3.25;;;;;;;17.30;96.82;101813.34;10253994;29;20058;-70
2023/06/28 00:43:50;;;;;;;12.60;4.53;;;;;;;17.25;95.62;101822.19;10252416;29;20086;-69
2023/06/28 00:48:51;;;;;;;6.10;3.17;;;;;;;17.23;94.48;101817.97;10252036;28;20035;-71
2023/06/28 00:53:51;;;;;;;6.38;3.60;;;;;;;17.25;95.03;101810.41;10252977;29;20077;-70
2023/06/28 00:58:52;;;;;;;6.53;4.18;;;;;;;17.20;94.66;101802.84;10253450;29;20443;-70
2023/06/28 01:03:53;;;;;;;11.50;3.75;;;;;;;17.22;95.72;101795.25;10235665;29;20035;-70
2023/06/28 01:08:53;;;;;;;5.68;3.92;;;;;;;17.23;97.94;101802.41;10253740;28;20123;-71
2023/06/28 01:13:54;;;;;;;14.77;3.47;;;;;;;17.20;99.78;101803.69;10235481;29;20135;-71
2023/06/28 01:18:54;;;;;;;8.75;3.80;;;;;;;17.17;100.00;101793.19;10250910;29;20038;-70
2023/06/28 01:23:56;;;;;;;7.93;4.40;;;;;;;17.19;99.67;101790.22;10250434;29;20114;-70
2023/06/28 01:28:56;;;;;;;7.07;3.90;;;;;;;17.20;99.64;101791.91;10251928;28;20113;-70
2023/06/28 01:33:57;;;;;;;6.50;3.63;;;;;;;17.23;100.00;101791.47;10250724;29;20067;-70
2023/06/28 01:38:57;;;;;;;11.60;4.50;;;;;;;17.27;100.00;101800.91;10236100;29;20039;-70
2023/06/28 01:43:57;;;;;;;8.02;3.30;;;;;;;17.25;100.00;101794.81;10249705;29;20070;-71
2023/06/28 01:48:58;;;;;;;8.07;3.53;;;;;;;17.34;100.00;101800.88;10234976;29;20134;-71
2023/06/28 01:53:58;;;;;;;7.25;3.15;;;;;;;17.42;99.17;101804.19;10252312;29;20522;-71
2023/06/28 01:58:59;;;;;;;11.35;3.97;;;;;;;17.38;100.00;101802.94;10254017;28;20080;-70
2023/06/28 02:03:59;;;;;;;14.18;3.75;;;;;;;17.44;100.00;101806.69;10258077;29;20515;-70
2023/06/28 02:09:00;;;;;;;9.05;3.15;;;;;;;17.48;100.00;101801.59;10259971;29;20098;-71
2023/06/28 02:14:00;;;;;;;4.93;3.53;;;;;;;17.44;100.00;101796.56;10258810;29;20102;-71
2023/06/28 02:19:01;;;;;;;7.65;4.68;;;;;;;17.40;100.00;101792.59;10242553;29;20126;-71
2023/06/28 02:24:01;;;;;;;19.92;3.78;;;;;;;17.30;100.00;101791.44;10256900;29;20370;-71
2023/06/28 02:29:02;;;;;;;5.18;2.92;;;;;;;17.19;100.00;101793.78;10258997;29;20031;-71
2023/06/28 02:34:02;;;;;;;3.83;3.15;;;;;;;17.06;100.00;101773.88;10259446;29;20039;-69
2023/06/28 02:39:03;;;;;;;13.63;4.43;;;;;;;17.06;100.00;101779.34;10257897;29;20526;-69
2023/06/28 02:44:03;;;;;;;6.50;3.95;;;;;;;17.00;100.00;101775.56;10256468;29;20352;-70
2023/06/28 02:49:04;;;;;;;9.45;3.92;;;;;;;16.96;100.00;101779.81;10257138;29;20041;-70
2023/06/28 02:54:05;;;;;;;13.30;4.63;;;;;;;16.89;100.00;101782.59;10239454;29;20035;-70
2023/06/28 02:59:07;;;;;;;4.15;2.78;;;;;;;16.81;100.00;101777.34;10257489;29;20074;-69
2023/06/28 03:04:07;;;;;;;7.15;3.92;;;;;;;16.70;100.00;101778.03;10257071;29;20042;-70
2023/06/28 03:09:08;;;;;;;7.45;3.47;;;;;;;16.68;100.00;101771.91;10256346;28;20475;-71
2023/06/28 03:14:08;;;;;;;17.13;4.75;;;;;;;16.63;100.00;101779.94;10255956;29;20065;-70
2023/06/28 03:19:08;;;;;;;11.05;3.70;;;;;;;16.61;100.00;101784.78;10255087;29;20042;-70
2023/06/28 03:24:09;;;;;;;9.98;3.50;;;;;;;16.53;100.00;101780.41;10255800;29;20063;-70
2023/06/28 03:29:09;;;;;;;8.00;4.30;;;;;;;16.52;100.00;101778.72;10256212;29;20471;-70
2023/06/28 03:34:10;;;;;;;13.98;3.75;;;;;;;16.44;100.00;101776.22;10254641;29;20093;-70
2023/06/28 03:39:10;;;;;;;10.75;2.85;;;;;;;16.35;100.00;101767.41;10238927;29;20122;-69
2023/06/28 03:44:10;;;;;;;4.95;3.60;;;;;;;16.32;100.00;101761.53;10254928;29;20059;-70
2023/06/28 03:49:11;;;;;;;7.93;4.22;;;;;;;16.23;100.00;101752.72;10237920;29;20042;-71
2023/06/28 03:54:13;;;;;;;4.00;3.67;;;;;;;16.17;100.00;101759.03;10222373;29;20082;-70
2023/06/28 03:59:14;;;;;;;14.15;4.25;;;;;;;16.19;100.00;101751.47;10237421;29;20477;-70
2023/06/28 04:04:14;;;;;;;10.45;4.60;;;;;;;16.25;100.00;101756.09;10222742;29;20130;-70
2023/06/28 04:09:15;;;;;;;9.23;5.78;;;;;;;16.25;100.00;101754.19;10237246;29;20553;-71
2023/06/28 04:14:15;;;;;;;7.60;5.40;;;;;;;16.24;100.00;101751.66;10220485;29;20043;-70
2023/06/28 04:19:16;;;;;;;16.33;5.30;;;;;;;16.18;100.00;101747.91;10254593;29;20086;-71
2023/06/28 04:24:16;;;;;;;5.97;4.40;;;;;;;16.19;100.00;101754.22;10252507;28;20487;-71
2023/06/28 04:29:17;;;;;;;6.40;5.75;;;;;;;16.25;100.00;101745.16;10252657;29;20034;-69
2023/06/28 04:34:19;;;;;;;8.65;5.88;;;;;;;16.26;100.00;101742.19;10261323;29;20057;-71
2023/06/28 04:39:19;;;;;;;18.70;7.28;;;;;;;16.31;100.00;101743.47;10252354;29;20035;-71
2023/06/28 04:44:20;;;;;;;14.93;7.97;;;;;;;16.36;100.00;101749.13;10252259;29;20070;-68
2023/06/28 04:49:20;;;;;;;15.00;7.40;;;;;;;16.43;100.00;101748.06;10252663;29;20043;-69
2023/06/28 04:54:21;;;;;;;8.90;7.15;;;;;;;16.46;100.00;101746.75;10251098;29;20039;-67
2023/06/28 04:59:21;;;;;;;17.27;7.38;;;;;;;16.57;100.00;101748.00;10251827;29;20051;-68
2023/06/28 05:04:22;;;;;;;15.27;8.32;;;;;;;16.57;100.00;101748.84;10235111;29;20050;-61
2023/06/28 05:09:22;;;;;;;9.73;7.68;;;;;;;16.67;100.00;101745.63;10251747;28;20035;-62
2023/06/28 05:14:24;;;;;;;9.52;7.40;;;;;;;16.71;100.00;101744.13;10252306;28;20030;-62
2023/06/28 05:19:25;;;;;;;11.52;6.90;;;;;;;16.72;100.00;101740.38;10235065;29;20370;-70
2023/06/28 05:24:25;;;;;;;13.18;6.15;;;;;;;16.81;100.00;101741.78;10252908;28;20130;-70
2023/06/28 05:29:25;;;;;;;10.90;7.00;;;;;;;16.84;100.00;101724.94;10267327;28;20432;-70
2023/06/28 05:34:26;;;;;;;8.82;5.53;;;;;;;16.91;100.00;101733.97;10250093;29;20399;-71
2023/06/28 05:39:26;;;;;;;14.65;7.22;;;;;;;16.97;100.00;101737.72;10266068;28;20066;-71
2023/06/28 05:44:27;;;;;;;13.38;6.70;;;;;;;16.98;100.00;101733.09;10267858;28;20055;-70
2023/06/28 05:49:27;;;;;;;22.20;7.40;;;;;;;17.03;100.00;101731.38;10251376;29;20046;-70
2023/06/28 05:54:27;;;;;;;24.77;8.70;;;;;;;17.16;100.00;101724.97;10250916;29;20035;-70
2023/06/28 05:59:30;;;;;;;9.85;6.05;;;;;;;17.22;100.00;101729.56;10249888;29;20081;-70
2023/06/28 06:04:30;;;;;;;14.88;8.05;;;;;;;17.31;100.00;101716.44;10251049;28;20410;-71
2023/06/28 06:09:31;;;;;;;7.60;5.65;;;;;;;17.48;100.00;101720.28;10250763;29;20092;-70
2023/06/28 06:14:32;;;;;;;22.58;5.97;;;;;;;17.64;100.00;101721.63;10249981;29;20433;-70
2023/06/28 06:19:33;;;;;;;12.23;7.32;;;;;;;17.83;100.00;101726.13;10233996;29;20036;-71
2023/06/28 06:24:33;;;;;;;15.95;6.75;;;;;;;18.11;100.00;101725.63;10250790;29;20059;-70
2023/06/28 06:29:34;;;;;;;12.50;6.20;;;;;;;18.33;100.00;101733.41;10249450;29;20607;-69
2023/06/28 06:34:34;;;;;;;11.18;6.45;;;;;;;18.47;100.00;101726.69;10250233;29;20058;-70
2023/06/28 06:39:34;;;;;;;8.23;5.82;;;;;;;18.63;100.00;101724.38;10237247;29;20043;-70
2023/06/28 06:44:35;;;;;;;11.75;5.97;;;;;;;18.80;100.00;101730.94;10267818;28;20059;-71
2023/06/28 06:49:35;;;;;;;12.65;6.85;;;;;;;18.99;100.00;101727.09;10258540;28;20071;-70
2023/06/28 06:54:37;;;;;;;9.05;5.47;;;;;;;19.25;100.00;101727.75;10256881;29;20043;-70
2023/06/28 06:59:37;;;;;;;13.90;5.15;;;;;;;19.49;100.00;101734.94;10255595;29;20050;-70
2023/06/28 07:04:38;;;;;;;15.85;6.60;;;;;;;19.65;100.00;101733.44;10255276;29;20065;-70
2023/06/28 07:09:38;;;;;;;11.60;5.78;;;;;;;19.78;100.00;101737.03;10257353;28;20058;-70
2023/06/28 07:14:39;;;;;;;9.68;5.80;;;;;;;19.85;100.00;101748.78;10238526;29;20039;-70
2023/06/28 07:19:39;;;;;;;8.90;4.13;;;;;;;19.93;100.00;101740.16;10255443;28;20046;-70
2023/06/28 07:24:40;;;;;;;22.02;6.97;;;;;;;20.08;100.00;101751.50;10255488;29;20043;-71
2023/06/28 07:29:40;;;;;;;12.70;6.75;;;;;;;20.14;100.00;101749.72;10254417;29;20039;-69
2023/06/28 07:34:40;;;;;;;11.25;5.45;;;;;;;20.28;100.00;101748.38;10222450;29;20054;-70
2023/06/28 07:39:41;;;;;;;10.10;6.93;;;;;;;20.27;100.00;101743.13;10254713;29;20027;-71
2023/06/28 07:44:41;;;;;;;10.80;6.35;;;;;;;20.26;100.00;101744.19;10255559;29;20055;-70
2023/06/28 07:49:42;;;;;;;14.25;5.40;;;;;;;20.61;100.00;101747.75;10256760;29;20067;-71
2023/06/28 07:54:42;;;;;;;6.53;5.32;;;;;;;20.94;100.00;101748.09;10238309;29;20054;-71
2023/06/28 07:59:42;;;;;;;23.42;8.13;;;;;;;21.00;100.00;101742.44;10253474;28;20042;-70
2023/06/28 08:04:43;;;;;;;24.27;6.10;;;;;;;20.96;100.00;101744.00;10254076;29;20043;-70
2023/06/28 08:09:43;;;;;;;22.40;7.43;;;;;;;21.01;100.00;101752.38;10254162;29;20102;-70
2023/06/28 08:14:44;;;;;;;13.15;7.40;;;;;;;21.08;100.00;101755.78;10252512;29;20097;-72
2023/06/28 08:19:44;;;;;;;13.25;7.60;;;;;;;21.45;100.00;101751.81;10254202;28;20117;-71
2023/06/28 08:24:45;;;;;;;15.77;8.80;;;;;;;21.53;100.00;101748.63;10236146;29;20039;-71
2023/06/28 08:29:45;;;;;;;25.17;9.30;;;;;;;21.56;100.00;101743.44;10253660;29;20111;-69
2023/06/28 08:34:46;;;;;;;12.52;8.38;;;;;;;21.57;100.00;101749.81;10253505;28;20034;-70
2023/06/28 08:39:47;;;;;;;13.52;8.63;;;;;;;21.70;100.00;101756.91;10253482;28;20081;-70
2023/06/28 08:44:50;;;;;;;13.70;8.52;;;;;;;21.66;100.00;101742.78;10253136;28;20054;-71
2023/06/28 08:49:50;;;;;;;10.20;7.95;;;;;;;21.61;100.00;101747.38;10254592;28;20043;-70
2023/06/28 08:54:51;;;;;;;12.77;8.35;;;;;;;21.45;100.00;101747.13;10255540;29;20479;-70
2023/06/28 08:59:52;;;;;;;15.80;9.23;;;;;;;21.23;100.00;101757.19;10252372;29;20456;-71
2023/06/28 09:04:52;;;;;;;12.30;8.82;;;;;;;21.18;100.00;101757.06;10252358;28;20035;-68
2023/06/28 09:09:53;;;;;;;21.27;8.65;;;;;;;21.07;100.00;101753.31;10251344;28;20070;-68
2023/06/28 09:14:55;;;;;;;14.18;8.48;;;;;;;21.03;100.00;101752.13;10251054;29;20130;-68
2023/06/28 09:20:14;;;;;;;14.30;10.05;;;;;;;21.04;100.00;101749.13;10252050;28;20094;-68
2023/06/28 09:25:14;;;;;;;21.75;10.48;;;;;;;21.33;100.00;101738.91;10253164;29;20049;-68
2023/06/28 09:30:18;;;;;;;15.75;9.90;;;;;;;22.18;100.00;101736.97;10251664;28;20457;-69
2023/06/28 09:35:19;;;;;;;13.68;8.10;;;;;;;22.51;100.00;101740.72;10250324;29;20050;-68
2023/06/28 09:40:20;;;;;;;14.00;8.93;;;;;;;22.44;100.00;101740.91;10250542;29;20027;-69
2023/06/28 09:45:28;;;;;;;22.27;9.05;;;;;;;22.05;100.00;101740.06;10250428;29;20070;-67
2023/06/28 09:50:42;;;;;;;13.48;9.05;;;;;;;21.95;100.00;101750.94;10250996;29;20035;-68
2023/06/28 09:55:43;;;;;;;29.63;8.98;;;;;;;22.04;100.00;101738.38;10235451;29;20031;-69
2023/06/28 10:00:46;;;;;;;14.13;9.00;;;;;;;22.03;100.00;101742.25;10252544;28;20071;-68
2023/06/28 10:05:46;;;;;;;8.20;6.97;;;;;;;22.43;100.00;101747.53;10269464;28;20042;-68
2023/06/28 10:10:47;;;;;;;19.00;8.77;;;;;;;23.03;100.00;101739.38;10251659;28;20479;-69
2023/06/28 10:15:51;;;;;;;7.95;7.10;;;;;;;23.65;100.00;101742.44;10250426;28;20027;-67
2023/06/28 10:20:51;;;;;;;22.52;9.27;;;;;;;23.99;100.00;101747.66;10253714;28;20066;-68
2023/06/28 10:25:54;;;;;;;14.07;9.05;;;;;;;24.42;100.00;101744.91;10257921;29;20032;-69
2023/06/28 10:30:54;;;;;;;12.48;8.20;;;;;;;24.09;100.00;101725.63;10257285;29;20097;-68
2023/06/28 10:35:55;;;;;;;11.50;9.00;;;;;;;24.30;100.00;101737.63;10258334;29;20086;-68
2023/06/28 10:40:56;;;;;;;13.15;8.93;;;;;;;24.78;100.00;101735.63;10256577;29;20049;-69
2023/06/28 10:45:56;;;;;;;16.00;8.43;;;;;;;24.62;100.00;101733.91;10240476;29;20055;-68
2023/06/28 10:51:01;;;;;;;23.83;8.77;;;;;;;24.45;100.00;101747.13;10224668;29;20125;-68
2023/06/28 10:56:11;;;;;;;13.70;9.68;;;;;;;24.88;100.00;101742.28;10256017;29;20032;-68
2023/06/28 11:01:13;;;;;;;10.25;7.50;;;;;;;25.14;100.00;101743.19;10256130;29;20126;-68
2023/06/28 11:06:14;;;;;;;11.50;8.68;;;;;;;25.42;100.00;101745.44;10256780;29;20042;-68
2023/06/28 11:11:37;;;;;;;19.83;9.80;;;;;;;25.58;100.00;101735.19;10240096;29;20118;-68
2023/06/28 11:16:37;;;;;;;14.52;8.10;;;;;;;25.43;100.00;101740.72;10255661;29;20361;-66
2023/06/28 11:21:38;;;;;;;28.90;9.82;;;;;;;25.51;100.00;101734.63;10240940;29;20047;-67
2023/06/28 11:26:38;;;;;;;18.75;9.50;;;;;;;25.94;100.00;101735.16;10239552;29;20047;-69
2023/06/28 11:31:41;;;;;;;17.42;8.73;;;;;;;26.40;100.00;101730.31;10255186;28;20050;-69
2023/06/28 11:36:43;;;;;;;12.00;7.93;;;;;;;26.38;100.00;101732.53;10254387;29;20039;-68
2023/06/28 11:41:43;;;;;;;13.80;9.07;;;;;;;26.91;100.00;101720.91;10238975;29;20039;-69
2023/06/28 11:46:45;;;;;;;10.13;9.13;;;;;;;27.33;100.00;101728.69;10237537;29;20174;-68
2023/06/28 11:51:46;;;;;;;9.52;7.85;;;;;;;27.47;100.00;101731.66;10253734;29;20074;-69
2023/06/28 11:56:46;;;;;;;23.30;7.65;;;;;;;27.50;100.00;101717.13;10253230;29;20460;-69
2023/06/28 12:01:48;;;;;;;13.90;8.90;;;;;;;27.96;100.00;101722.28;10252618;29;20110;-69
2023/06/28 12:06:48;;;;;;;8.65;7.68;;;;;;;28.09;100.00;101723.53;10253709;29;20481;-68
2023/06/28 12:11:53;;;;;;;13.05;8.13;;;;;;;28.30;92.23;101726.91;10255712;28;20035;-67
2023/06/28 12:16:54;;;;;;;7.88;7.10;;;;;;;27.64;93.85;101722.88;10254183;29;20130;-68
2023/06/28 12:21:56;;;;;;;10.20;8.00;;;;;;;26.90;89.94;101733.16;10221108;29;20042;-68
2023/06/28 12:26:59;;;;;;;10.10;8.43;;;;;;;27.23;98.05;101733.50;10252145;29;20046;-68
2023/06/28 12:32:14;;;;;;;14.23;8.77;;;;;;;26.82;93.98;101726.25;10254211;28;20073;-69
2023/06/28 12:37:15;;;;;;;14.80;8.65;;;;;;;26.79;93.49;101728.75;10253798;28;20031;-69
2023/06/28 12:42:15;;;;;;;11.02;8.18;;;;;;;27.24;90.45;101735.16;10235342;28;20190;-68
2023/06/28 12:47:28;;;;;;;12.93;9.43;;;;;;;27.65;92.93;101723.69;10251983;29;20398;-69
2023/06/28 12:52:29;;;;;;;12.95;9.20;;;;;;;28.01;89.09;101724.19;10235207;29;20392;-68
2023/06/28 12:57:30;;;;;;;13.18;10.50;;;;;;;27.77;85.52;101724.16;10252942;28;20089;-68
2023/06/28 13:02:31;;;;;;;13.27;9.00;;;;;;;27.15;96.30;101734.13;10253843;28;20035;-68
2023/06/28 13:07:31;;;;;;;17.90;8.93;;;;;;;26.76;95.50;101726.56;10251522;29;20493;-69
2023/06/28 13:12:32;;;;;;;14.80;9.43;;;;;;;26.70;92.96;101730.47;10267262;28;20067;-68
2023/06/28 13:17:32;;;;;;;12.93;10.18;;;;;;;27.00;95.47;101727.53;10251903;29;20050;-70
2023/06/28 13:22:33;;;;;;;20.80;10.27;;;;;;;26.99;83.44;101717.50;10235814;29;20051;-69
2023/06/28 13:27:33;;;;;;;12.10;9.00;;;;;;;27.18;90.41;101728.81;10219632;29;20126;-68
2023/06/28 13:32:34;;;;;;;15.02;9.30;;;;;;;27.46;92.37;101721.63;10252553;28;20059;-67
2023/06/28 13:37:34;;;;;;;12.25;7.55;;;;;;;27.78;89.40;101721.06;10233882;29;20468;-69
2023/06/28 13:42:35;;;;;;;11.75;9.38;;;;;;;28.69;77.70;101715.56;10249655;29;20484;-68
2023/06/28 13:47:35;;;;;;;10.35;7.10;;;;;;;29.38;75.96;101718.69;10250529;29;20036;-68
2023/06/28 13:52:35;;;;;;;10.45;7.75;;;;;;;30.01;74.77;101727.66;10249858;29;20039;-68
2023/06/28 13:57:36;;;;;;;8.40;7.13;;;;;;;28.91;66.42;101720.56;10273143;28;20074;-70
2023/06/28 14:02:36;;;;;;;8.55;7.07;;;;;;;28.00;78.14;101722.53;10259132;29;20122;-69
2023/06/28 14:07:37;;;;;;;18.85;9.18;;;;;;;27.71;77.81;101719.75;10259399;29;20379;-69
2023/06/28 14:12:37;;;;;;;10.05;7.30;;;;;;;27.19;82.74;101713.81;10258723;29;20039;-68
2023/06/28 14:17:37;;;;;;;8.25;6.40;;;;;;;26.92;79.48;101710.63;10257075;29;20475;-68
2023/06/28 14:22:38;;;;;;;13.02;6.47;;;;;;;26.55;79.98;101721.13;10257761;29;20055;-70
2023/06/28 14:27:38;;;;;;;7.22;6.53;;;;;;;26.49;79.13;101713.09;10255964;29;20050;-68
2023/06/28 14:32:39;;;;;;;9.73;5.47;;;;;;;26.01;78.86;101705.19;10257897;29;20047;-69
2023/06/28 14:37:40;;;;;;;9.85;5.88;;;;;;;26.35;81.74;101699.78;10258692;28;20038;-68
2023/06/28 14:42:40;;;;;;;7.57;6.80;;;;;;;26.59;86.12;101699.97;10255769;29;20051;-68
2023/06/28 14:47:41;;;;;;;8.73;6.70;;;;;;;26.69;81.46;101706.59;10258141;28;20047;-69
2023/06/28 14:52:41;;;;;;;7.03;6.25;;;;;;;26.96;78.74;101706.13;10257013;29;20066;-68
2023/06/28 14:57:42;;;;;;;9.02;6.63;;;;;;;27.07;77.60;101713.31;10256865;28;20183;-68
2023/06/28 15:02:42;;;;;;;10.05;6.03;;;;;;;26.92;75.05;101703.09;10256874;29;20130;-70
2023/06/28 15:07:43;;;;;;;10.07;5.88;;;;;;;26.65;73.63;101698.84;10255229;28;20040;-69
2023/06/28 15:12:43;;;;;;;6.55;6.03;;;;;;;26.85;77.98;101695.09;10239159;29;20066;-69
2023/06/28 15:17:43;;;;;;;8.27;7.18;;;;;;;27.02;76.15;101703.03;10256058;29;20051;-69
2023/06/28 15:22:44;;;;;;;7.20;5.25;;;;;;;26.85;74.14;101695.09;10271174;28;20071;-67
2023/06/28 15:27:44;;;;;;;9.05;6.25;;;;;;;27.03;75.53;101687.22;10254193;29;20098;-69
2023/06/28 15:32:44;;;;;;;5.20;4.72;;;;;;;26.89;72.53;101684.22;10254020;29;20050;-68
2023/06/28 15:37:45;;;;;;;15.32;5.22;;;;;;;26.78;74.45;101674.31;10255453;29;20035;-67
2023/06/28 15:42:46;;;;;;;6.57;4.63;;;;;;;27.11;72.56;101667.94;10253727;29;20071;-68
2023/06/28 15:47:46;;;;;;;4.90;4.45;;;;;;;26.98;72.19;101674.16;10254972;29;20130;-69
2023/06/28 15:52:46;;;;;;;4.97;4.30;;;;;;;26.73;73.29;101671.56;10255556;29;20459;-67
2023/06/28 15:57:47;;;;;;;5.45;4.10;;;;;;;26.42;70.65;101677.28;10253720;29;20027;-68
2023/06/28 16:02:51;;;;;;;8.85;4.90;;;;;;;26.33;70.41;101668.69;10236920;29;20447;-67
2023/06/28 16:07:52;;;;;;;11.02;6.70;;;;;;;26.19;68.09;101667.63;10254828;28;20042;-70
2023/06/28 16:12:52;;;;;;;6.88;5.93;;;;;;;26.06;75.37;101663.53;10254182;28;20474;-69
2023/06/28 16:17:53;;;;;;;6.97;6.25;;;;;;;26.27;72.22;101664.28;10254073;28;20035;-68
2023/06/28 16:22:53;;;;;;;9.13;5.63;;;;;;;26.32;70.59;101657.84;10252698;29;20039;-69
2023/06/28 16:27:54;;;;;;;9.75;7.25;;;;;;;26.15;70.55;101661.81;10235907;29;20455;-68
2023/06/28 16:32:56;;;;;;;7.10;6.35;;;;;;;26.02;72.59;101653.28;10253045;29;20043;-69
2023/06/28 16:37:56;;;;;;;9.93;6.75;;;;;;;25.83;74.88;101650.28;10252825;28;20050;-68
2023/06/28 16:42:56;;;;;;;5.43;4.45;;;;;;;25.54;70.11;101655.59;10252883;28;20109;-68
2023/06/28 16:47:58;;;;;;;6.18;5.57;;;;;;;25.47;67.72;101650.34;10252444;29;20065;-69
2023/06/28 16:52:58;;;;;;;5.78;5.28;;;;;;;25.51;70.75;101645.91;10250506;29;20046;-69
2023/06/28 16:57:58;;;;;;;7.72;5.65;;;;;;;25.58;72.41;101648.38;10253167;28;20126;-68
2023/06/28 17:02:59;;;;;;;7.18;5.50;;;;;;;25.34;72.69;101657.28;10251311;29;20146;-69
2023/06/28 17:07:59;;;;;;;8.75;6.05;;;;;;;25.08;71.88;101648.13;10251318;29;20423;-69
2023/06/28 17:13:00;;;;;;;8.77;7.30;;;;;;;24.95;72.04;101657.81;10250948;29;20143;-69
2023/06/28 17:18:00;;;;;;;11.82;8.07;;;;;;;24.92;72.00;101651.97;10234194;29;20035;-69
2023/06/28 17:23:00;;;;;;;9.60;6.28;;;;;;;24.74;73.67;101656.94;10252359;28;20039;-68
2023/06/28 17:28:01;;;;;;;10.27;7.53;;;;;;;24.62;75.67;101659.13;10249866;29;20359;-69
2023/06/28 17:33:01;;;;;;;16.30;7.68;;;;;;;24.72;76.19;101655.56;10250237;29;20042;-68
2023/06/28 17:38:02;;;;;;;13.43;7.85;;;;;;;24.65;75.86;101647.50;10249512;29;20480;-69
2023/06/28 17:43:02;;;;;;;8.65;6.97;;;;;;;24.55;74.26;101655.81;10249547;29;20074;-69
2023/06/28 17:48:03;;;;;;;7.50;6.80;;;;;;;24.72;73.80;101656.38;10232596;29;20067;-69
2023/06/28 17:53:03;;;;;;;11.40;7.07;;;;;;;24.74;73.50;101648.63;10248743;29;20122;-69
2023/06/28 17:58:04;;;;;;;9.25;7.85;;;;;;;24.59;74.81;101648.59;10250340;29;20047;-69
2023/06/28 18:03:04;;;;;;;8.88;7.97;;;;;;;24.36;74.96;101647.13;10249055;29;20455;-69
2023/06/28 18:08:04;;;;;;;6.78;6.07;;;;;;;24.30;75.34;101656.50;10248999;29;20118;-69
2023/06/28 18:13:05;;;;;;;9.52;6.32;;;;;;;24.20;72.48;101654.53;10250227;28;20101;-68
2023/06/28 18:18:06;;;;;;;13.10;7.07;;;;;;;24.06;72.85;101662.53;10232116;29;20486;-68
2023/06/28 18:23:06;;;;;;;7.47;6.55;;;;;;;23.87;72.33;101661.31;10248672;29;20133;-68
2023/06/28 18:28:06;;;;;;;6.38;5.78;;;;;;;23.70;72.45;101655.94;10249312;29;20094;-68
2023/06/28 18:33:07;;;;;;;10.48;7.35;;;;;;;23.52;70.69;101661.91;10249655;29;20035;-68
2023/06/28 18:38:08;;;;;;;7.45;6.70;;;;;;;23.35;71.50;101654.56;10249578;29;20042;-64
2023/06/28 18:43:09;;;;;;;8.18;7.35;;;;;;;23.33;72.55;101656.78;10253821;28;20061;-67
2023/06/28 18:48:09;;;;;;;7.95;6.93;;;;;;;23.14;73.31;101659.09;10257411;28;20356;-66
2023/06/28 18:53:13;;;;;;;15.18;9.15;;;;;;;22.97;73.94;101661.16;10257647;28;20049;-66
2023/06/28 18:58:29;;;;;;;9.90;6.65;;;;;;;22.72;78.32;101657.03;10239914;29;20100;-66
2023/06/28 19:03:30;;;;;;;12.18;7.95;;;;;;;22.56;79.84;101648.81;10256413;28;20089;-65
2023/06/28 19:08:30;;;;;;;9.10;7.97;;;;;;;22.43;79.91;101647.31;10254853;29;20129;-64
2023/06/28 19:13:31;;;;;;;12.18;7.88;;;;;;;22.40;79.56;101651.44;10256030;29;20430;-65
2023/06/28 19:18:32;;;;;;;14.30;8.10;;;;;;;22.31;81.22;101644.72;10255730;29;20042;-64
2023/06/28 19:23:32;;;;;;;12.43;8.85;;;;;;;22.23;81.70;101651.50;10255600;28;20031;-66
2023/06/28 19:28:32;;;;;;;11.07;7.30;;;;;;;22.09;84.36;101638.34;10255433;29;20039;-64
2023/06/28 19:33:33;;;;;;;9.20;7.30;;;;;;;22.01;84.51;101645.13;10255905;28;20047;-65
2023/06/28 19:38:34;;;;;;;10.35;7.18;;;;;;;21.99;83.40;101637.13;10254216;29;20170;-66
2023/06/28 19:43:34;;;;;;;12.52;7.93;;;;;;;21.95;84.07;101641.47;10254381;29;20126;-65
2023/06/28 19:48:34;;;;;;;12.63;7.90;;;;;;;21.75;86.51;101635.69;10255442;29;20043;-65
2023/06/28 19:53:36;;;;;;;12.48;8.43;;;;;;;21.71;84.60;101640.88;10254408;28;20066;-66
2023/06/28 19:58:39;;;;;;;11.55;7.85;;;;;;;21.69;87.24;101642.19;10255708;28;20042;-63
2023/06/28 20:03:39;;;;;;;13.18;7.50;;;;;;;21.59;86.73;101643.72;10253457;29;20035;-64
2023/06/28 20:08:39;;;;;;;15.95;9.90;;;;;;;21.53;86.89;101653.00;10251897;29;20088;-64
2023/06/28 20:13:40;;;;;;;11.00;8.15;;;;;;;21.53;86.09;101650.25;10254322;29;20069;-64
2023/06/28 20:18:40;;;;;;;14.52;7.80;;;;;;;21.52;85.91;101648.56;10252125;29;20043;-63
2023/06/28 20:23:41;;;;;;;19.15;9.25;;;;;;;21.45;87.38;101647.94;10252921;28;20419;-64
2023/06/28 20:28:43;;;;;;;10.07;8.00;;;;;;;21.41;86.64;101652.28;10253580;28;20110;-65
2023/06/28 20:33:44;;;;;;;12.27;8.00;;;;;;;21.33;89.73;101649.91;10236045;29;20476;-64
2023/06/28 20:38:46;;;;;;;11.73;7.15;;;;;;;21.24;89.86;101656.91;10251568;29;20031;-65
2023/06/28 20:43:50;;;;;;;22.00;9.25;;;;;;;21.16;89.23;101655.41;10251355;29;20098;-64
2023/06/28 20:48:50;;;;;;;12.45;8.07;;;;;;;21.12;88.92;101663.34;10268568;28;20035;-69
2023/06/28 20:53:50;;;;;;;21.42;9.00;;;;;;;21.04;90.76;101660.16;10251171;29;20094;-67
2023/06/28 20:58:51;;;;;;;21.75;9.80;;;;;;;21.04;90.15;101657.41;10253298;28;20375;-68
2023/06/28 21:03:52;;;;;;;13.98;8.60;;;;;;;20.97;89.86;101660.31;10249966;28;20039;-68
2023/06/28 21:08:52;;;;;;;12.77;9.90;;;;;;;20.90;91.81;101648.66;10252034;28;20114;-67
2023/06/28 21:13:53;;;;;;;12.00;10.60;;;;;;;20.82;92.22;101654.53;10250948;29;20456;-67
2023/06/28 21:18:53;;;;;;;14.32;9.77;;;;;;;20.76;93.79;101652.78;10251573;29;20035;-67
2023/06/28 21:23:53;;;;;;;18.75;10.45;;;;;;;20.74;93.14;101652.19;10266636;28;20134;-67
2023/06/28 21:28:54;;;;;;;16.70;10.85;;;;;;;20.81;91.89;101652.88;10253796;29;20043;-69
2023/06/28 21:33:55;;;;;;;11.88;9.57;;;;;;;20.76;93.87;101645.34;10252714;29;20035;-68
2023/06/28 21:38:57;;;;;;;12.50;9.82;;;;;;;20.82;93.37;101646.28;10234431;29;20039;-68
2023/06/28 21:43:57;;;;;;;14.98;10.18;;;;;;;20.80;92.40;101640.19;10249879;29;20043;-69
2023/06/28 21:48:58;;;;;;;13.70;8.73;;;;;;;20.79;93.37;101633.84;10251263;29;20336;-68
2023/06/28 21:54:00;;;;;;;19.27;10.32;;;;;;;20.73;95.04;101628.50;10250641;29;20078;-67
2023/06/28 21:59:00;;;;;;;12.27;10.05;;;;;;;20.77;94.65;101630.53;10249398;29;20036;-71
2023/06/28 22:04:01;;;;;;;10.75;9.45;;;;;;;20.67;97.11;101628.41;10264591;28;20050;-68
2023/06/28 22:09:01;;;;;;;13.05;9.32;;;;;;;20.71;94.79;101623.25;10250713;29;20067;-67
2023/06/28 22:14:06;;;;;;;19.25;12.43;;;;;;;20.73;94.28;101620.25;10250106;28;20058;-69
2023/06/28 22:19:09;;;;;;;15.70;11.32;;;;;;;20.73;94.50;101617.50;10257228;28;20170;-68
2023/06/28 22:24:10;;;;;;;16.13;11.52;;;;;;;20.71;94.59;101608.63;10257869;28;20035;-68
2023/06/28 22:29:10;;;;;;;15.45;11.77;;;;;;;20.71;94.28;101605.88;10257806;28;20035;-69
2023/06/28 22:34:10;;;;;;;16.48;11.05;;;;;;;20.70;95.16;101602.28;10257725;28;20125;-67
2023/06/28 22:39:11;;;;;;;18.10;10.90;;;;;;;20.74;95.24;101597.13;10256729;29;20052;-68
2023/06/28 22:44:11;;;;;;;19.83;11.82;;;;;;;20.69;95.81;101595.13;10255894;29;20415;-67